createdAt,value
2022-10-03T00:00:33.675Z,419.88
2022-10-03T00:03:35.378Z,404.45
2022-10-03T00:06:40.098Z,411.67
2022-10-03T00:09:43.814Z,402.38
2022-10-03T00:12:50.918Z,402.80
2022-10-03T00:15:47.217Z,414.70
2022-10-03T00:18:49.817Z,405.58
2022-10-03T00:21:50.149Z,425.98
2022-10-03T00:24:52.993Z,403.85
2022-10-03T00:27:48.031Z,405.95
2022-10-03T00:30:51.104Z,414.10
2022-10-03T00:33:56.160Z,403.45
2022-10-03T00:36:53.463Z,406.02
2022-10-03T00:39:52.104Z,396.35
2022-10-03T00:43:14.823Z,406.85
2022-10-03T00:46:44.104Z,398.77
2022-10-03T00:50:18.342Z,372.00
2022-10-03T00:53:24.534Z,349.27
2022-10-03T00:56:32.522Z,369.30
2022-10-03T00:59:34.558Z,386.70
2022-10-03T01:02:37.746Z,375.83
2022-10-03T01:05:36.029Z,376.77
2022-10-03T01:08:40.305Z,357.27
2022-10-03T01:11:41.742Z,372.92
2022-10-03T01:14:49.291Z,380.50
2022-10-03T01:17:49.368Z,392.15
2022-10-03T01:20:48.785Z,374.35
2022-10-03T01:23:56.250Z,386.80
2022-10-03T01:26:55.497Z,381.55
2022-10-03T01:30:10.856Z,358.13
2022-10-03T01:33:10.525Z,365.30
2022-10-03T01:36:04.526Z,379.00
2022-10-03T01:38:57.631Z,378.92
2022-10-03T01:41:58.981Z,383.27
2022-10-03T01:45:02.822Z,381.38
2022-10-03T01:47:56.730Z,378.67
2022-10-03T01:50:53.125Z,392.30
2022-10-03T01:53:56.534Z,392.80
2022-10-03T01:56:54.238Z,378.58
2022-10-03T01:59:48.264Z,376.52
2022-10-03T02:02:45.234Z,379.58
2022-10-03T02:05:42.627Z,381.35
2022-10-03T02:08:46.994Z,383.48
2022-10-03T02:11:39.844Z,372.58
2022-10-03T02:14:36.229Z,373.50
2022-10-03T02:17:31.278Z,375.13
2022-10-03T02:20:27.489Z,354.05
2022-10-03T02:23:45.121Z,360.33
2022-10-03T02:27:10.146Z,372.40
2022-10-03T02:30:14.547Z,344.88
2022-10-03T02:33:33.181Z,339.13
2022-10-03T02:36:49.400Z,355.50
2022-10-03T02:40:09.618Z,344.67
2022-10-03T02:43:45.984Z,360.27
2022-10-03T02:47:11.112Z,332.23
2022-10-03T02:50:33.760Z,329.37
2022-10-03T02:54:00.036Z,311.07
2022-10-03T02:57:22.248Z,343.07
2022-10-03T03:00:18.609Z,311.10
2022-10-03T03:03:41.412Z,330.53
2022-10-03T03:06:57.501Z,316.03
2022-10-03T03:10:23.166Z,313.67
2022-10-03T03:13:36.808Z,319.20
2022-10-03T03:17:01.995Z,302.90
2022-10-03T03:20:06.716Z,317.53
2022-10-03T03:23:11.694Z,337.23
2022-10-03T03:26:18.762Z,327.60
2022-10-03T03:29:19.239Z,306.73
2022-10-03T03:32:18.716Z,318.77
2022-10-03T03:35:18.134Z,319.43
2022-10-03T03:38:17.174Z,314.90
2022-10-03T03:41:19.459Z,309.80
2022-10-03T03:44:26.515Z,307.60
2022-10-03T03:47:36.319Z,327.73
2022-10-03T03:50:38.084Z,338.27
2022-10-03T03:53:43.083Z,314.40
2022-10-03T03:57:03.247Z,320.83
2022-10-03T04:00:07.028Z,288.03
2022-10-03T04:03:22.116Z,290.73
2022-10-03T04:06:24.450Z,293.40
2022-10-03T04:09:30.371Z,284.07
2022-10-03T04:12:31.207Z,307.87
2022-10-03T04:15:41.186Z,325.10
2022-10-03T04:18:57.868Z,310.13
2022-10-03T04:22:19.678Z,293.07
2022-10-03T04:25:26.263Z,290.43
2022-10-03T04:28:34.145Z,307.87
2022-10-03T04:31:33.910Z,309.73
2022-10-03T04:34:35.301Z,301.57
2022-10-03T04:37:33.203Z,317.23
2022-10-03T04:40:34.835Z,311.30
2022-10-03T04:43:36.409Z,296.17
2022-10-03T04:46:31.338Z,310.93
2022-10-03T04:49:32.122Z,304.97
2022-10-03T04:52:28.442Z,307.90
2022-10-03T04:55:26.683Z,288.77
2022-10-03T04:58:26.850Z,308.03
2022-10-03T05:01:21.499Z,306.40
2022-10-03T05:04:26.533Z,309.67
2022-10-03T05:07:23.062Z,301.40
2022-10-03T05:10:27.155Z,299.43
2022-10-03T05:13:20.246Z,293.53
2022-10-03T05:16:21.890Z,288.83
2022-10-03T05:19:48.100Z,309.97
2022-10-03T05:22:49.663Z,296.43
2022-10-03T05:25:52.681Z,314.30
2022-10-03T05:28:49.076Z,305.47
2022-10-03T05:31:49.568Z,304.47
2022-10-03T05:34:53.660Z,311.30
2022-10-03T05:38:00.298Z,300.87
2022-10-03T05:41:01.951Z,307.27
2022-10-03T05:44:02.555Z,285.77
2022-10-03T05:47:00.179Z,297.47
2022-10-03T05:50:10.958Z,313.83
2022-10-03T05:53:11.051Z,314.40
2022-10-03T05:56:09.485Z,297.00
2022-10-03T05:59:30.935Z,297.00
2022-10-03T06:02:52.919Z,297.80
2022-10-03T06:05:31.732Z,297.93
2022-10-03T06:08:20.847Z,300.67
2022-10-03T06:11:01.001Z,321.73
2022-10-03T06:13:45.281Z,307.73
2022-10-03T06:16:26.759Z,311.27
2022-10-03T06:19:07.759Z,319.40
2022-10-03T06:22:10.905Z,301.20
2022-10-03T06:25:25.575Z,316.87
2022-10-03T06:28:25.928Z,311.30
2022-10-03T06:31:24.753Z,319.40
2022-10-03T06:34:13.326Z,311.60
2022-10-03T06:37:17.777Z,332.30
2022-10-03T06:40:20.173Z,320.87
2022-10-03T06:43:19.273Z,331.33
2022-10-03T06:46:21.306Z,329.90
2022-10-03T06:49:18.779Z,342.90
2022-10-03T06:52:02.135Z,334.47
2022-10-03T06:55:13.764Z,344.53
2022-10-03T06:58:23.274Z,342.93
2022-10-03T07:01:05.616Z,335.40
2022-10-03T07:04:01.508Z,341.60
2022-10-03T07:06:56.901Z,345.33
2022-10-03T07:10:12.063Z,367.27
2022-10-03T07:13:04.911Z,328.13
2022-10-03T07:16:26.074Z,374.38
2022-10-03T07:19:39.822Z,337.30
2022-10-03T07:22:35.545Z,352.27
2022-10-03T07:25:34.210Z,380.00
2022-10-03T07:28:26.460Z,374.70
2022-10-03T07:31:06.221Z,372.30
2022-10-03T07:34:12.356Z,414.02
2022-10-03T07:37:16.964Z,357.20
2022-10-03T07:40:26.411Z,374.92
2022-10-03T07:43:32.426Z,357.90
2022-10-03T07:46:34.434Z,364.13
2022-10-03T07:49:24.430Z,379.88
2022-10-03T07:52:12.401Z,373.65
2022-10-03T07:55:15.667Z,388.48
2022-10-03T07:58:13.001Z,382.35
2022-10-03T08:00:59.705Z,383.42
2022-10-03T08:04:08.215Z,377.73
2022-10-03T08:06:42.234Z,374.80
2022-10-03T08:09:48.256Z,375.08
2022-10-03T08:12:45.541Z,369.85
2022-10-03T08:15:24.890Z,389.75
2022-10-03T08:18:35.230Z,397.23
2022-10-03T08:21:04.802Z,406.75
2022-10-03T08:24:06.371Z,392.38
2022-10-03T08:26:58.534Z,397.40
2022-10-03T08:29:51.936Z,394.65
2022-10-03T08:32:57.239Z,404.13
2022-10-03T08:36:00.034Z,407.80
2022-10-03T08:38:43.548Z,375.50
2022-10-03T08:42:01.282Z,421.25
2022-10-03T08:45:01.291Z,385.73
2022-10-03T08:48:02.489Z,397.17
2022-10-03T08:50:58.480Z,386.55
2022-10-03T08:53:53.942Z,394.90
2022-10-03T08:56:28.177Z,411.40
2022-10-03T08:59:15.003Z,426.00
2022-10-03T09:02:12.156Z,411.20
2022-10-03T09:05:11.579Z,407.38
2022-10-03T09:08:13.096Z,432.30
2022-10-03T09:11:18.805Z,426.77
2022-10-03T09:14:27.289Z,403.83
2022-10-03T09:17:06.253Z,408.15
2022-10-03T09:20:13.374Z,419.38
2022-10-03T09:23:00.547Z,418.40
2022-10-03T09:25:59.198Z,444.33
2022-10-03T09:28:47.850Z,433.67
2022-10-03T09:31:31.967Z,420.17
2022-10-03T09:34:29.624Z,410.17
2022-10-03T09:37:36.838Z,418.17
2022-10-03T09:40:59.437Z,412.27
2022-10-03T09:44:14.600Z,388.70
2022-10-03T09:47:31.080Z,412.00
2022-10-03T09:50:27.799Z,400.23
2022-10-03T09:53:24.658Z,386.52
2022-10-03T09:56:24.869Z,382.58
2022-10-03T09:59:13.309Z,398.75
2022-10-03T10:01:46.737Z,418.85
2022-10-03T10:05:00.911Z,419.23
2022-10-03T10:07:53.449Z,381.10
2022-10-03T10:10:52.818Z,392.58
2022-10-03T10:14:13.138Z,394.85
2022-10-03T10:17:04.390Z,378.90
2022-10-03T10:19:56.333Z,367.80
2022-10-03T10:22:47.756Z,385.35
2022-10-03T10:25:29.849Z,407.65
2022-10-03T10:28:18.868Z,418.58
2022-10-03T10:31:18.475Z,446.83
2022-10-03T10:34:36.921Z,436.92
2022-10-03T10:37:46.378Z,427.77
2022-10-03T10:40:47.025Z,410.45
2022-10-03T10:43:40.398Z,424.83
2022-10-03T10:46:42.990Z,430.95
2022-10-03T10:49:50.681Z,402.10
2022-10-03T10:52:48.289Z,400.88
2022-10-03T10:55:56.181Z,432.35
2022-10-03T10:59:05.432Z,436.70
2022-10-03T11:02:32.063Z,420.58
2022-10-03T11:05:34.377Z,420.40
2022-10-03T11:08:30.492Z,426.80
2022-10-03T11:11:22.030Z,439.25
2022-10-03T11:14:24.363Z,444.83
2022-10-03T11:17:19.492Z,419.85
2022-10-03T11:20:14.981Z,415.95
2022-10-03T11:23:13.560Z,398.52
2022-10-03T11:26:07.423Z,398.83
2022-10-03T11:29:17.073Z,404.88
2022-10-03T11:32:18.193Z,386.05
2022-10-03T11:35:22.220Z,389.58
2022-10-03T11:37:56.062Z,367.98
2022-10-03T11:40:32.324Z,392.10
2022-10-03T11:43:48.736Z,402.08
2022-10-03T11:46:48.154Z,419.30
2022-10-03T11:49:35.450Z,398.00
2022-10-03T11:52:13.110Z,387.35
2022-10-03T11:54:44.128Z,373.50
2022-10-03T11:57:25.692Z,379.70
2022-10-03T12:00:02.576Z,353.17
2022-10-03T12:03:02.321Z,336.38
2022-10-03T12:05:47.939Z,353.58
2022-10-03T12:08:41.359Z,344.48
2022-10-03T12:11:17.359Z,348.35
2022-10-03T12:13:53.227Z,344.27
2022-10-03T12:16:27.736Z,332.17
2022-10-03T12:19:06.207Z,346.20
2022-10-03T12:21:51.159Z,359.60
2022-10-03T12:24:26.403Z,354.35
2022-10-03T12:27:01.891Z,349.17
2022-10-03T12:29:33.220Z,319.60
2022-10-03T12:32:16.899Z,345.73
2022-10-03T12:34:50.966Z,297.52
2022-10-03T12:37:34.067Z,287.40
2022-10-03T12:40:07.317Z,290.92
2022-10-03T12:42:40.791Z,305.40
2022-10-03T12:45:21.178Z,307.65
2022-10-03T12:48:05.290Z,304.48
2022-10-03T12:50:55.066Z,311.83
2022-10-03T12:53:31.947Z,341.75
2022-10-03T12:56:18.255Z,350.48
2022-10-03T12:59:01.501Z,307.48
2022-10-03T13:01:43.216Z,348.48
2022-10-03T13:04:27.813Z,336.42
2022-10-03T13:07:09.174Z,334.63
2022-10-03T13:10:12.593Z,325.25
2022-10-03T13:12:51.002Z,344.40
2022-10-03T13:15:40.745Z,344.20
2022-10-03T13:18:19.623Z,311.83
2022-10-03T13:20:59.747Z,335.20
2022-10-03T13:23:37.961Z,337.23
2022-10-03T13:26:17.910Z,318.35
2022-10-03T13:29:12.607Z,322.45
2022-10-03T13:31:55.331Z,329.15
2022-10-03T13:34:27.101Z,339.60
2022-10-03T13:37:00.632Z,327.30
2022-10-03T13:39:38.663Z,326.00
2022-10-03T13:42:19.208Z,325.00
2022-10-03T13:44:54.384Z,316.55
2022-10-03T13:47:38.397Z,323.65
2022-10-03T13:50:15.217Z,309.58
2022-10-03T13:52:46.569Z,319.88
2022-10-03T13:55:26.410Z,313.75
2022-10-03T13:58:24.788Z,314.02
2022-10-03T14:01:14.051Z,316.45
2022-10-03T14:03:55.136Z,316.27
2022-10-03T14:06:37.379Z,311.05
2022-10-03T14:09:38.950Z,328.38
2022-10-03T14:12:28.191Z,326.05
2022-10-03T14:15:34.413Z,324.05
2022-10-03T14:18:14.448Z,335.05
2022-10-03T14:21:20.787Z,320.98
2022-10-03T14:23:57.911Z,322.10
2022-10-03T14:26:33.843Z,332.35
2022-10-03T14:29:08.249Z,320.10
2022-10-03T14:31:44.408Z,326.80
2022-10-03T14:34:25.431Z,318.80
2022-10-03T14:36:58.288Z,323.88
2022-10-03T14:39:36.929Z,324.38
2022-10-03T14:42:28.666Z,301.73
2022-10-03T14:44:59.546Z,298.20
2022-10-03T14:47:36.793Z,297.55
2022-10-03T14:50:06.318Z,305.33
2022-10-03T14:52:39.973Z,303.50
2022-10-03T14:55:14.136Z,294.65
2022-10-03T14:58:06.013Z,318.80
2022-10-03T15:00:42.886Z,291.35
2022-10-03T15:03:22.467Z,293.83
2022-10-03T15:06:01.622Z,267.38
2022-10-03T15:08:35.865Z,270.42
2022-10-03T15:11:06.282Z,283.77
2022-10-03T15:13:39.208Z,275.30
2022-10-03T15:16:09.245Z,273.05
2022-10-03T15:18:39.596Z,263.45
2022-10-03T15:21:15.650Z,271.02
2022-10-03T15:23:46.878Z,274.00
2022-10-03T15:26:20.636Z,273.88
2022-10-03T15:28:51.307Z,291.40
2022-10-03T15:31:27.544Z,269.42
2022-10-03T15:33:59.049Z,283.63
2022-10-03T15:36:31.241Z,268.50
2022-10-03T15:39:02.065Z,282.77
2022-10-03T15:41:36.558Z,260.95
2022-10-03T15:44:08.773Z,269.42
2022-10-03T15:46:43.343Z,277.73
2022-10-03T15:49:23.599Z,265.80
2022-10-03T15:51:52.317Z,276.75
2022-10-03T15:54:24.121Z,268.05
2022-10-03T15:56:55.046Z,274.23
2022-10-03T15:59:27.381Z,272.27
2022-10-03T16:01:56.697Z,275.52
2022-10-03T16:04:28.965Z,293.88
2022-10-03T16:07:03.160Z,289.90
2022-10-03T16:09:39.444Z,303.50
2022-10-03T16:12:33.793Z,325.38
2022-10-03T16:15:17.268Z,327.45
2022-10-03T16:17:50.443Z,346.45
2022-10-03T16:20:23.255Z,340.13
2022-10-03T16:22:54.081Z,350.40
2022-10-03T16:25:26.515Z,378.38
2022-10-03T16:27:58.950Z,370.35
2022-10-03T16:30:30.630Z,363.10
2022-10-03T16:33:05.733Z,388.55
2022-10-03T16:35:42.351Z,386.15
2022-10-03T16:38:21.588Z,403.73
2022-10-03T16:40:56.451Z,375.80
2022-10-03T16:43:24.698Z,391.48
2022-10-03T16:45:54.613Z,421.67
2022-10-03T16:48:43.697Z,399.27
2022-10-03T16:51:20.505Z,407.38
2022-10-03T16:53:51.003Z,388.13
2022-10-03T16:56:23.205Z,387.85
2022-10-03T16:58:54.433Z,364.98
2022-10-03T17:01:32.806Z,378.98
2022-10-03T17:04:16.651Z,381.25
2022-10-03T17:06:49.552Z,373.58
2022-10-03T17:09:24.639Z,392.73
2022-10-03T17:11:55.459Z,397.38
2022-10-03T17:14:26.125Z,419.48
2022-10-03T17:17:02.787Z,398.83
2022-10-03T17:19:35.874Z,394.88
2022-10-03T17:22:14.865Z,387.88
2022-10-03T17:24:52.814Z,382.70
2022-10-03T17:27:29.356Z,349.02
2022-10-03T17:30:03.077Z,359.42
2022-10-03T17:32:36.646Z,355.90
2022-10-03T17:35:12.266Z,337.35
2022-10-03T17:38:24.623Z,341.67
2022-10-03T17:41:12.672Z,307.98
2022-10-03T17:43:44.840Z,319.58
2022-10-03T17:46:21.013Z,334.33
2022-10-03T17:48:56.577Z,313.38
2022-10-03T17:51:35.600Z,314.85
2022-10-03T17:54:10.989Z,330.75
2022-10-03T17:56:44.690Z,315.30
2022-10-03T17:59:15.477Z,317.60
2022-10-03T18:01:46.079Z,328.88
2022-10-03T18:04:18.817Z,298.30
2022-10-03T18:06:48.269Z,300.50
2022-10-03T18:09:28.059Z,301.77
2022-10-03T18:12:12.107Z,289.63
2022-10-03T18:14:53.844Z,289.95
2022-10-03T18:17:28.159Z,295.48
2022-10-03T18:20:25.417Z,318.85
2022-10-03T18:23:00.365Z,302.50
2022-10-03T18:26:14.979Z,289.42
2022-10-03T18:28:44.971Z,279.75
2022-10-03T18:31:17.946Z,292.80
2022-10-03T18:33:51.340Z,297.45
2022-10-03T18:36:23.711Z,282.15
2022-10-03T18:38:54.166Z,289.33
2022-10-03T18:41:23.264Z,279.27
2022-10-03T18:43:58.628Z,281.33
2022-10-03T18:46:30.119Z,279.23
2022-10-03T18:49:32.953Z,278.15
2022-10-03T18:51:54.188Z,285.38
2022-10-03T18:54:33.495Z,280.07
2022-10-03T18:57:18.122Z,289.48
2022-10-03T18:59:51.510Z,266.95
2022-10-03T19:02:26.119Z,280.67
2022-10-03T19:04:58.528Z,287.40
2022-10-03T19:07:31.111Z,299.80
2022-10-03T19:10:24.152Z,289.58
2022-10-03T19:13:01.496Z,284.27
2022-10-03T19:15:44.105Z,275.57
2022-10-03T19:18:22.747Z,261.10
2022-10-03T19:20:53.892Z,264.05
2022-10-03T19:23:27.237Z,281.07
2022-10-03T19:25:57.696Z,284.63
2022-10-03T19:28:31.615Z,290.20
2022-10-03T19:31:03.673Z,285.27
2022-10-03T19:33:33.907Z,280.27
2022-10-03T19:36:06.821Z,254.87
2022-10-03T19:38:39.561Z,284.53
2022-10-03T19:41:17.455Z,276.83
2022-10-03T19:43:49.895Z,278.40
2022-10-03T19:46:32.845Z,281.08
2022-10-03T19:49:21.519Z,261.92
2022-10-03T19:51:50.084Z,275.77
2022-10-03T19:54:31.531Z,275.87
2022-10-03T19:57:03.734Z,265.97
2022-10-03T19:59:45.909Z,269.30
2022-10-03T20:02:14.274Z,267.50
2022-10-03T20:05:02.018Z,252.20
2022-10-03T20:07:56.726Z,261.77
2022-10-03T20:10:55.808Z,252.73
2022-10-03T20:13:47.207Z,274.23
2022-10-03T20:16:47.093Z,285.87
2022-10-03T20:19:54.399Z,284.20
2022-10-03T20:22:42.869Z,284.17
2022-10-03T20:25:34.438Z,294.90
2022-10-03T20:28:28.394Z,322.85
2022-10-03T20:31:22.723Z,310.80
2022-10-03T20:34:16.397Z,309.38
2022-10-03T20:37:23.507Z,306.15
2022-10-03T20:40:30.577Z,299.47
2022-10-03T20:43:41.285Z,296.90
2022-10-03T20:46:39.152Z,295.33
2022-10-03T20:49:32.939Z,300.52
2022-10-03T20:52:22.838Z,295.97
2022-10-03T20:55:21.254Z,310.80
2022-10-03T20:58:18.638Z,304.30
2022-10-03T21:01:11.639Z,302.43
2022-10-03T21:04:08.182Z,304.90
2022-10-03T21:07:04.070Z,295.80
2022-10-03T21:10:01.301Z,310.13
2022-10-03T21:12:51.227Z,307.83
2022-10-03T21:15:46.150Z,303.90
2022-10-03T21:18:38.058Z,292.67
2022-10-03T21:21:31.177Z,284.07
2022-10-03T21:24:27.062Z,274.40
2022-10-03T21:27:17.458Z,305.47
2022-10-03T21:30:17.260Z,297.00
2022-10-03T21:33:12.689Z,299.80
2022-10-03T21:36:11.987Z,289.13
2022-10-03T21:39:10.484Z,303.23
2022-10-03T21:42:12.905Z,291.63
2022-10-03T21:45:16.292Z,286.83
2022-10-03T21:48:12.857Z,280.47
2022-10-03T21:51:06.159Z,306.07
2022-10-03T21:54:07.611Z,276.23
2022-10-03T21:57:08.440Z,328.80
2022-10-03T22:00:12.010Z,298.23
2022-10-03T22:03:09.395Z,283.83
2022-10-03T22:06:05.314Z,317.53
2022-10-03T22:08:54.673Z,281.60
2022-10-03T22:11:47.770Z,304.07
2022-10-03T22:14:44.381Z,306.20
2022-10-03T22:17:40.568Z,304.57
2022-10-03T22:20:31.194Z,291.63
2022-10-03T22:23:33.229Z,300.63
2022-10-03T22:26:30.685Z,308.90
2022-10-03T22:29:25.521Z,287.37
2022-10-03T22:32:23.382Z,292.27
2022-10-03T22:35:30.134Z,304.13
2022-10-03T22:38:19.624Z,294.90
2022-10-03T22:41:13.010Z,296.47
2022-10-03T22:44:02.321Z,296.00
2022-10-03T22:46:55.649Z,310.60
2022-10-03T22:49:47.912Z,277.73
2022-10-03T22:52:39.711Z,278.47
2022-10-03T22:55:29.006Z,269.07
2022-10-03T22:58:18.039Z,290.47
2022-10-03T23:01:06.683Z,296.90
2022-10-03T23:03:55.369Z,296.80
2022-10-03T23:07:04.530Z,277.63
2022-10-03T23:10:01.580Z,269.87
2022-10-03T23:12:57.027Z,288.07
2022-10-03T23:15:48.798Z,271.00
2022-10-03T23:18:58.707Z,306.17
2022-10-03T23:21:48.390Z,294.97
2022-10-03T23:24:44.795Z,303.97
2022-10-03T23:27:53.444Z,279.70
2022-10-03T23:30:49.255Z,286.27
2022-10-03T23:33:51.290Z,269.47
2022-10-03T23:36:59.896Z,294.27
2022-10-03T23:40:28.520Z,284.03
2022-10-03T23:43:28.385Z,287.80
2022-10-03T23:46:19.443Z,303.50
2022-10-03T23:49:07.429Z,264.43
2022-10-03T23:51:56.784Z,284.27
2022-10-03T23:54:45.915Z,281.20
2022-10-03T23:57:40.997Z,290.63
